createdAt,value
2023-03-01T00:03:50.492Z,396.94118
2023-03-01T00:08:52.069Z,403.70149
2023-03-01T00:13:53.676Z,400.2963
2023-03-01T00:18:55.430Z,396.94118
2023-03-01T00:23:56.980Z,396.94118
2023-03-01T00:28:58.565Z,390.37681
2023-03-01T00:34:00.151Z,403.70149
2023-03-01T00:39:01.694Z,403.70149
2023-03-01T00:44:03.238Z,387.16547
2023-03-01T00:49:04.864Z,393.63504
2023-03-01T00:54:06.599Z,387.16547
2023-03-01T00:59:08.119Z,380.87943
2023-03-01T01:04:09.750Z,377.80282
2023-03-01T01:09:11.219Z,380.87943
2023-03-01T01:14:12.673Z,371.77778
2023-03-01T01:19:14.234Z,365.91781
2023-03-01T01:24:15.737Z,363.04762
2023-03-01T01:29:17.201Z,360.21622
2023-03-01T01:34:18.704Z,360.21622
2023-03-01T01:39:20.259Z,360.21622
2023-03-01T01:44:21.754Z,357.42282
2023-03-01T01:49:23.240Z,354.66667
2023-03-01T01:54:24.731Z,346.61438
2023-03-01T01:59:26.251Z,341.41935
2023-03-01T02:04:27.791Z,341.41935
2023-03-01T02:09:29.287Z,344
2023-03-01T02:14:30.825Z,344
2023-03-01T02:19:32.347Z,341.41935
2023-03-01T02:24:34.742Z,333.87342
2023-03-01T02:29:36.534Z,329
2023-03-01T02:34:38.080Z,321.91411
2023-03-01T02:39:39.614Z,321.91411
2023-03-01T02:44:41.037Z,319.60976
2023-03-01T02:49:42.533Z,329
2023-03-01T02:54:44.147Z,329
2023-03-01T02:59:45.646Z,326.6087
2023-03-01T03:04:47.196Z,317.33333
2023-03-01T03:09:48.688Z,317.33333
2023-03-01T03:14:50.136Z,317.33333
2023-03-01T03:19:51.896Z,326.6087
2023-03-01T03:24:53.346Z,315.08434
2023-03-01T03:29:54.803Z,317.33333
2023-03-01T03:34:56.273Z,315.08434
2023-03-01T03:39:57.710Z,302.13953
2023-03-01T03:44:59.230Z,310.66667
2023-03-01T03:50:00.869Z,315.08434
2023-03-01T03:55:02.392Z,312.86228
2023-03-01T04:00:03.958Z,308.49704
2023-03-01T04:05:05.620Z,308.49704
2023-03-01T04:10:07.167Z,306.35294
2023-03-01T04:15:08.720Z,310.66667
2023-03-01T04:20:10.537Z,310.66667
2023-03-01T04:25:12.161Z,315.08434
2023-03-01T04:30:13.688Z,324.24691
2023-03-01T04:35:15.209Z,326.6087
2023-03-01T04:40:16.743Z,326.6087
2023-03-01T04:45:18.280Z,329
2023-03-01T04:50:19.851Z,331.42138
2023-03-01T04:55:21.347Z,336.35669
2023-03-01T05:00:22.873Z,331.42138
2023-03-01T05:05:24.492Z,336.35669
2023-03-01T05:10:26.241Z,329
2023-03-01T05:15:27.797Z,331.42138
2023-03-01T05:20:29.229Z,321.91411
2023-03-01T05:25:30.704Z,317.33333
2023-03-01T05:30:32.191Z,308.49704
2023-03-01T05:35:33.917Z,321.91411
2023-03-01T05:40:35.475Z,306.35294
2023-03-01T05:45:37.163Z,312.86228
2023-03-01T05:50:38.735Z,315.08434
2023-03-01T05:55:40.292Z,315.08434
2023-03-01T06:00:41.861Z,321.91411
2023-03-01T06:05:43.633Z,315.08434
2023-03-01T06:10:45.189Z,308.49704
2023-03-01T06:15:46.771Z,306.35294
2023-03-01T06:20:48.574Z,312.86228
2023-03-01T06:25:50.108Z,306.35294
2023-03-01T06:30:51.664Z,310.66667
2023-03-01T06:35:53.433Z,304.23392
2023-03-01T06:40:55.114Z,302.13953
2023-03-01T06:45:56.565Z,310.66667
2023-03-01T06:50:58.067Z,302.13953
2023-03-01T06:55:59.500Z,306.35294
2023-03-01T07:01:01.029Z,300.06936
2023-03-01T07:06:02.549Z,317.33333
2023-03-01T07:11:03.976Z,310.66667
2023-03-01T07:16:05.651Z,300.06936
2023-03-01T07:21:07.308Z,310.66667
2023-03-01T07:26:08.939Z,294
2023-03-01T07:31:10.535Z,304.23392
2023-03-01T07:36:12.081Z,308.49704
2023-03-01T07:41:13.534Z,300.06936
2023-03-01T07:46:15.060Z,306.35294
2023-03-01T07:51:16.558Z,298.02299
2023-03-01T07:56:18.006Z,308.49704
2023-03-01T08:01:19.492Z,308.49704
2023-03-01T08:06:21.081Z,288.13408
2023-03-01T08:11:22.569Z,315.08434
2023-03-01T08:16:24.147Z,302.13953
2023-03-01T08:21:25.689Z,312.86228
2023-03-01T08:26:27.165Z,344
2023-03-01T08:31:28.656Z,354.66667
2023-03-01T08:36:30.616Z,357.42282
2023-03-01T08:41:32.343Z,344
2023-03-01T08:46:34.309Z,371.77778
2023-03-01T08:51:35.984Z,336.35669
2023-03-01T08:56:37.464Z,333.87342
2023-03-01T09:01:38.992Z,346.61438
2023-03-01T09:06:40.502Z,333.87342
2023-03-01T09:11:42.025Z,363.04762
2023-03-01T09:16:43.718Z,390.37681
2023-03-01T09:21:45.323Z,365.91781
2023-03-01T09:26:46.824Z,371.77778
2023-03-01T09:31:48.421Z,368.82759
2023-03-01T09:36:49.971Z,396.94118
2023-03-01T09:41:51.455Z,377.80282
2023-03-01T09:46:53.112Z,390.37681
2023-03-01T09:51:54.828Z,414.22901
2023-03-01T09:56:56.303Z,403.70149
2023-03-01T10:01:57.794Z,414.22901
2023-03-01T10:06:59.469Z,410.66667
2023-03-01T10:12:00.908Z,403.70149
2023-03-01T10:17:02.508Z,387.16547
2023-03-01T10:22:03.986Z,417.84615
2023-03-01T10:27:05.443Z,432.88889
2023-03-01T10:32:07.041Z,440.77419
2023-03-01T10:37:08.645Z,396.94118
2023-03-01T10:42:10.243Z,396.94118
2023-03-01T10:47:11.698Z,393.63504
2023-03-01T10:52:13.171Z,421.51938
2023-03-01T10:57:14.662Z,432.88889
2023-03-01T11:02:24.573Z,440.77419
2023-03-01T11:07:26.687Z,436.8
2023-03-01T11:12:28.157Z,444.81301
2023-03-01T11:17:30.018Z,425.25
2023-03-01T11:22:32.102Z,429.03937
2023-03-01T11:27:33.760Z,448.91803
2023-03-01T11:32:35.397Z,432.88889
2023-03-01T11:37:37.045Z,461.64706
2023-03-01T11:42:38.749Z,436.8
2023-03-01T11:47:40.501Z,498.95495
2023-03-01T11:52:42.121Z,475.03448
2023-03-01T11:57:44.347Z,470.49573
2023-03-01T12:02:45.914Z,466.0339
2023-03-01T12:07:47.444Z,470.49573
2023-03-01T12:12:48.910Z,479.65217
2023-03-01T12:17:50.366Z,479.65217
2023-03-01T12:22:52.057Z,461.64706
2023-03-01T12:27:53.522Z,494
2023-03-01T12:32:55.231Z,432.88889
2023-03-01T12:37:56.906Z,470.49573
2023-03-01T12:42:58.526Z,444.81301
2023-03-01T12:48:00.073Z,461.64706
2023-03-01T12:53:01.749Z,444.81301
2023-03-01T12:58:03.342Z,436.8
2023-03-01T13:03:04.826Z,440.77419
2023-03-01T13:08:06.326Z,457.33333
2023-03-01T13:13:07.898Z,440.77419
2023-03-01T13:18:09.438Z,436.8
2023-03-01T13:23:10.921Z,429.03937
2023-03-01T13:28:12.404Z,432.88889
2023-03-01T13:33:13.950Z,407.15789
2023-03-01T13:38:15.452Z,414.22901
2023-03-01T13:43:16.997Z,453.09091
2023-03-01T13:48:18.497Z,407.15789
2023-03-01T13:53:20.047Z,417.84615
2023-03-01T13:58:21.523Z,400.2963
2023-03-01T14:03:23.106Z,393.63504
2023-03-01T14:08:24.728Z,387.16547
2023-03-01T14:13:26.216Z,387.16547
2023-03-01T14:18:27.772Z,387.16547
2023-03-01T14:23:29.294Z,403.70149
2023-03-01T14:28:30.811Z,393.63504
2023-03-01T14:33:32.324Z,357.42282
2023-03-01T14:38:33.805Z,363.04762
2023-03-01T14:43:35.273Z,371.77778
2023-03-01T14:48:36.812Z,380.87943
2023-03-01T14:53:50.350Z,360.21622
2023-03-01T14:58:52.438Z,374.76923
2023-03-01T15:03:53.969Z,380.87943
2023-03-01T15:08:55.586Z,371.77778
2023-03-01T15:13:57.166Z,368.82759
2023-03-01T15:18:58.764Z,363.04762
2023-03-01T15:24:00.282Z,363.04762
2023-03-01T15:29:01.808Z,349.26316
2023-03-01T15:34:03.246Z,363.04762
2023-03-01T15:39:04.787Z,341.41935
2023-03-01T15:44:06.375Z,336.35669
2023-03-01T15:49:07.842Z,346.61438
2023-03-01T15:54:09.370Z,344
2023-03-01T15:59:11.016Z,351.94702
2023-03-01T16:04:12.576Z,344
2023-03-01T16:09:14.060Z,344
2023-03-01T16:14:15.601Z,336.35669
2023-03-01T16:19:17.090Z,344
2023-03-01T16:24:18.593Z,321.91411
2023-03-01T16:29:20.103Z,341.41935
2023-03-01T16:34:21.614Z,317.33333
2023-03-01T16:39:23.100Z,324.24691
2023-03-01T16:44:24.692Z,324.24691
2023-03-01T16:49:26.225Z,321.91411
2023-03-01T16:54:27.677Z,326.6087
2023-03-01T16:59:29.218Z,326.6087
2023-03-01T17:04:30.772Z,331.42138
2023-03-01T17:09:32.355Z,321.91411
2023-03-01T17:14:33.850Z,333.87342
2023-03-01T17:19:35.329Z,338.87179
2023-03-01T17:24:36.821Z,329
2023-03-01T17:29:38.297Z,336.35669
2023-03-01T17:34:39.798Z,336.35669
2023-03-01T17:39:41.504Z,354.66667
2023-03-01T17:44:43.940Z,349.26316
2023-03-01T17:49:45.534Z,336.35669
2023-03-01T17:54:47.008Z,344
2023-03-01T17:59:48.543Z,349.26316
2023-03-01T18:04:50.058Z,354.66667
2023-03-01T18:09:51.756Z,354.66667
2023-03-01T18:14:53.177Z,354.66667
2023-03-01T18:19:54.696Z,349.26316
2023-03-01T18:24:56.268Z,365.91781
2023-03-01T18:29:57.744Z,380.87943
2023-03-01T18:34:59.200Z,377.80282
2023-03-01T18:40:00.976Z,390.37681
2023-03-01T18:45:02.526Z,390.37681
2023-03-01T18:50:04.036Z,380.87943
2023-03-01T18:55:05.573Z,377.80282
2023-03-01T19:00:07.051Z,374.76923
2023-03-01T19:05:08.528Z,384
2023-03-01T19:10:10.257Z,390.37681
2023-03-01T19:15:11.673Z,390.37681
2023-03-01T19:20:13.189Z,390.37681
2023-03-01T19:25:14.891Z,393.63504
2023-03-01T19:30:16.359Z,396.94118
2023-03-01T19:35:18.003Z,393.63504
2023-03-01T19:40:19.579Z,400.2963
2023-03-01T19:45:31.856Z,396.94118
2023-03-01T19:50:34.823Z,393.63504
2023-03-01T19:55:36.310Z,396.94118
2023-03-01T20:00:37.872Z,387.16547
2023-03-01T20:05:39.365Z,390.37681
2023-03-01T20:10:41.014Z,407.15789
2023-03-01T20:15:42.624Z,390.37681
2023-03-01T20:20:44.211Z,393.63504
2023-03-01T20:25:45.720Z,403.70149
2023-03-01T20:30:47.251Z,390.37681
2023-03-01T20:35:48.755Z,403.70149
2023-03-01T20:40:50.301Z,400.2963
2023-03-01T20:45:51.849Z,390.37681
2023-03-01T20:50:53.363Z,390.37681
2023-03-01T20:55:54.825Z,396.94118
2023-03-01T21:00:56.305Z,393.63504
2023-03-01T21:05:57.923Z,393.63504
2023-03-01T21:10:59.407Z,400.2963
2023-03-01T21:16:01.199Z,387.16547
2023-03-01T21:21:02.712Z,377.80282
2023-03-01T21:26:04.196Z,371.77778
2023-03-01T21:31:05.713Z,371.77778
2023-03-01T21:36:07.217Z,365.91781
2023-03-01T21:41:08.838Z,374.76923
2023-03-01T21:46:10.424Z,377.80282
2023-03-01T21:51:11.983Z,393.63504
2023-03-01T21:56:13.436Z,384
2023-03-01T22:01:15.066Z,387.16547
2023-03-01T22:06:17.651Z,374.76923
2023-03-01T22:11:19.720Z,377.80282
2023-03-01T22:16:21.342Z,384
2023-03-01T22:21:22.990Z,384
2023-03-01T22:26:24.668Z,374.76923
2023-03-01T22:31:26.205Z,374.76923
2023-03-01T22:36:27.805Z,377.80282
2023-03-01T22:41:29.405Z,380.87943
2023-03-01T22:46:31.326Z,380.87943
2023-03-01T22:51:32.978Z,374.76923
2023-03-01T22:56:34.773Z,377.80282
2023-03-01T23:01:36.445Z,365.91781
2023-03-01T23:06:37.928Z,363.04762
2023-03-01T23:11:39.645Z,354.66667
2023-03-01T23:16:41.193Z,349.26316
2023-03-01T23:21:42.726Z,346.61438
2023-03-01T23:26:44.288Z,349.26316
2023-03-01T23:31:45.733Z,344
2023-03-01T23:36:47.202Z,341.41935
2023-03-01T23:41:48.713Z,346.61438
2023-03-01T23:46:50.278Z,344
2023-03-01T23:51:51.809Z,338.87179
2023-03-01T23:56:53.430Z,338.87179
